Time;durP1;ratioP1;P1;durP2;ratioP2;P2;SDS_P1;SDS_P2;PMS_P1;PMS_P2;Temp;Humidity;BMP_temperature;BMP_pressure;BME280_temperature;BME280_humidity;BME280_pressure;Samples;Min_cycle;Max_cycle;Signal;HPM_P1;HPM_P2
2023/06/20 00:00:25;;;;;;;8.57;6.50;;;;;;;19.62;100.00;101389.28;2065010;28;20930;-62
2023/06/20 00:01:25;;;;;;;9.40;6.00;;;;;;;19.12;100.00;101314.19;2064844;28;20650;-62
2023/06/20 00:02:25;;;;;;;7.00;6.20;;;;;;;19.63;100.00;101386.00;2065029;28;20213;-63
2023/06/20 00:03:26;;;;;;;10.17;6.97;;;;;;;19.58;100.00;101386.66;2064959;28;20236;-62
2023/06/20 00:04:26;;;;;;;8.53;6.57;;;;;;;19.56;100.00;101391.97;2064940;28;21142;-62
2023/06/20 00:05:27;;;;;;;8.43;6.57;;;;;;;18.84;100.00;101279.06;2064940;28;20173;-62
2023/06/20 00:06:27;;;;;;;8.97;6.93;;;;;;;19.51;100.00;101384.19;2064952;28;20206;-62
2023/06/20 00:07:28;;;;;;;7.07;6.33;;;;;;;19.28;100.00;101339.94;2064840;28;20229;-62
2023/06/20 00:08:28;;;;;;;8.67;6.40;;;;;;;19.56;100.00;101386.34;2064221;28;20212;-62
2023/06/20 00:09:28;;;;;;;9.77;6.83;;;;;;;19.44;100.00;101381.69;2064140;28;20205;-62
2023/06/20 00:10:29;;;;;;;7.37;6.60;;;;;;;19.44;100.00;101392.19;2065156;28;20185;-62
2023/06/20 00:11:29;;;;;;;10.13;6.70;;;;;;;19.43;100.00;101387.78;2064855;28;20323;-62
2023/06/20 00:12:30;;;;;;;8.90;6.50;;;;;;;19.42;100.00;101383.44;2064025;28;20553;-62
2023/06/20 00:13:30;;;;;;;8.77;6.30;;;;;;;19.43;100.00;101393.41;2069716;28;20186;-62
2023/06/20 00:14:30;;;;;;;7.03;6.33;;;;;;;19.00;100.00;101327.22;2066707;28;20189;-62
2023/06/20 00:15:31;;;;;;;8.47;6.67;;;;;;;19.39;100.00;101390.78;2056557;28;20191;-62
2023/06/20 00:16:31;;;;;;;8.97;6.30;;;;;;;19.43;100.00;101391.38;2057060;28;20662;-62
2023/06/20 00:17:32;;;;;;;9.93;6.77;;;;;;;19.45;100.00;101397.31;2066294;28;20184;-62
2023/06/20 00:18:32;;;;;;;7.23;6.53;;;;;;;19.46;100.00;101393.25;2066445;28;20259;-62
2023/06/20 00:19:33;;;;;;;8.50;6.57;;;;;;;19.47;100.00;101394.81;2066249;28;20229;-62
2023/06/20 00:20:33;;;;;;;10.30;6.33;;;;;;;19.00;100.00;101312.38;2066423;28;20189;-62
2023/06/20 00:21:33;;;;;;;10.37;6.30;;;;;;;19.20;100.00;101344.31;2069116;28;20558;-62
2023/06/20 00:22:35;;;;;;;9.03;6.37;;;;;;;19.53;100.00;101395.72;2072728;28;20178;-62
2023/06/20 00:23:35;;;;;;;8.23;5.80;;;;;;;19.53;100.00;101387.28;2066344;28;20671;-62
2023/06/20 00:24:35;;;;;;;7.87;6.10;;;;;;;19.51;100.00;101397.44;2066533;28;20878;-62
2023/06/20 00:25:36;;;;;;;7.47;6.37;;;;;;;19.49;100.00;101389.50;2066236;28;20177;-63
2023/06/20 00:26:37;;;;;;;8.37;6.30;;;;;;;19.50;100.00;101395.91;2061031;28;20190;-62
2023/06/20 00:27:38;;;;;;;6.80;5.50;;;;;;;19.49;100.00;101397.16;2058476;28;20174;-62
2023/06/20 00:28:39;;;;;;;10.23;6.10;;;;;;;19.50;100.00;101398.72;2061180;28;20436;-62
2023/06/20 00:29:40;;;;;;;7.00;6.30;;;;;;;19.46;100.00;101398.88;2066331;28;20496;-62
2023/06/20 00:30:41;;;;;;;9.30;6.23;;;;;;;19.48;100.00;101401.19;2065774;28;20167;-62
2023/06/20 00:31:41;;;;;;;8.50;6.10;;;;;;;19.41;100.00;101390.31;2066543;28;20412;-62
2023/06/20 00:32:42;;;;;;;9.87;6.67;;;;;;;18.90;100.00;101328.50;2066402;28;20177;-62
2023/06/20 00:33:42;;;;;;;7.20;6.10;;;;;;;19.40;100.00;101402.81;2065718;28;20231;-62
2023/06/20 00:34:42;;;;;;;6.50;5.90;;;;;;;19.38;100.00;101400.47;2065757;28;20205;-62
2023/06/20 00:35:43;;;;;;;9.00;5.90;;;;;;;19.34;100.00;101393.47;2066234;28;20660;-62
2023/06/20 00:36:43;;;;;;;6.67;5.60;;;;;;;19.34;100.00;101393.47;2066479;28;20675;-62
2023/06/20 00:37:44;;;;;;;7.57;6.53;;;;;;;19.33;100.00;101389.88;2066362;28;20651;-62
2023/06/20 00:38:48;;;;;;;7.63;6.03;;;;;;;19.31;100.00;101389.56;2066472;28;20163;-62
2023/06/20 00:39:49;;;;;;;8.10;6.10;;;;;;;19.31;100.00;101388.78;2066175;28;20256;-62
2023/06/20 00:40:49;;;;;;;7.93;6.20;;;;;;;19.28;100.00;101395.34;2066291;28;20413;-62
2023/06/20 00:41:49;;;;;;;7.03;6.40;;;;;;;19.21;100.00;101382.41;2066236;28;20316;-62
2023/06/20 00:42:50;;;;;;;7.40;6.07;;;;;;;19.16;100.00;101380.22;2066279;28;20177;-62
2023/06/20 00:43:51;;;;;;;8.70;6.37;;;;;;;19.25;100.00;101396.31;2066185;28;20243;-62
2023/06/20 00:44:51;;;;;;;9.27;6.10;;;;;;;18.46;100.00;101271.19;2066317;28;20266;-62
2023/06/20 00:45:52;;;;;;;9.90;5.93;;;;;;;19.24;100.00;101389.88;2066323;28;20275;-62
2023/06/20 00:46:52;;;;;;;7.00;6.13;;;;;;;19.19;100.00;101398.94;2066309;28;20187;-62
2023/06/20 00:47:53;;;;;;;9.20;6.17;;;;;;;18.50;100.00;101291.47;2066167;28;20220;-62
2023/06/20 00:48:56;;;;;;;6.93;6.23;;;;;;;19.18;100.00;101397.38;2066073;28;20408;-62
2023/06/20 00:49:56;;;;;;;9.93;7.10;;;;;;;19.16;100.00;101393.47;2072098;28;20193;-62
2023/06/20 00:50:57;;;;;;;9.63;6.30;;;;;;;19.13;100.00;101400.06;2074457;28;20415;-62
2023/06/20 00:51:57;;;;;;;8.10;6.17;;;;;;;19.10;100.00;101396.16;2074422;28;20263;-62
2023/06/20 00:53:05;;;;;;;8.87;6.60;;;;;;;18.56;100.00;101316.84;2074305;28;20561;-62
2023/06/20 00:54:06;;;;;;;7.57;6.27;;;;;;;19.04;100.00;101398.03;2071938;28;20696;-62
2023/06/20 00:55:07;;;;;;;8.87;6.70;;;;;;;19.03;100.00;101395.72;2067190;28;20471;-62
2023/06/20 00:56:09;;;;;;;7.33;6.27;;;;;;;17.90;100.00;101228.84;2074392;28;20226;-62
2023/06/20 00:57:12;;;;;;;7.77;7.00;;;;;;;18.89;100.00;101394.31;2074348;28;20423;-62
2023/06/20 00:58:13;;;;;;;7.40;6.60;;;;;;;18.90;100.00;101401.53;2066476;28;20432;-62
2023/06/20 00:59:13;;;;;;;9.30;6.23;;;;;;;18.89;100.00;101396.38;2066248;28;20437;-62
2023/06/20 01:00:14;;;;;;;7.27;6.27;;;;;;;18.27;100.00;101306.09;2066335;28;20557;-62
2023/06/20 01:01:16;;;;;;;8.70;6.80;;;;;;;18.90;100.00;101401.53;2066087;28;20326;-62
2023/06/20 01:02:17;;;;;;;8.20;6.70;;;;;;;18.87;100.00;101393.22;2066082;28;20648;-62
2023/06/20 01:03:18;;;;;;;10.93;7.10;;;;;;;18.83;100.00;101392.63;2066089;28;20785;-62
2023/06/20 01:04:20;;;;;;;8.33;7.50;;;;;;;18.91;100.00;101405.88;2066177;28;20184;-62
2023/06/20 01:05:26;;;;;;;8.10;6.93;;;;;;;18.17;100.00;101298.94;2066223;28;20184;-62
2023/06/20 01:06:36;;;;;;;7.77;6.97;;;;;;;18.88;100.00;101401.19;2066193;28;20922;-62
2023/06/20 01:07:50;;;;;;;7.70;6.70;;;;;;;18.88;100.00;101403.25;2058269;28;20434;-62
2023/06/20 01:09:16;;;;;;;7.83;6.90;;;;;;;18.89;100.00;101410.41;2058515;28;20398;-62
2023/06/20 01:10:26;;;;;;;8.17;7.37;;;;;;;18.87;100.00;101407.28;2069025;28;20435;-62
2023/06/20 01:11:54;;;;;;;8.53;6.60;;;;;;;18.85;100.00;101396.53;2074276;28;20411;-62
2023/06/20 01:13:22;;;;;;;10.63;6.80;;;;;;;18.86;100.00;101394.50;2068554;28;20421;-62
2023/06/20 01:14:32;;;;;;;13.27;7.30;;;;;;;18.86;100.00;101400.09;2066106;28;20420;-62
2023/06/20 01:15:36;;;;;;;7.97;7.17;;;;;;;18.86;100.00;101394.50;2065950;28;20505;-62
2023/06/20 01:16:47;;;;;;;11.07;7.10;;;;;;;18.86;100.00;101395.28;2066033;28;20454;-62
2023/06/20 01:17:57;;;;;;;11.90;7.07;;;;;;;18.84;100.00;101403.38;2066125;28;20468;-62
2023/06/20 01:18:57;;;;;;;10.27;7.30;;;;;;;18.80;100.00;101402.78;2065902;28;21020;-62
2023/06/20 01:20:13;;;;;;;10.60;7.10;;;;;;;18.09;100.00;101298.47;2065986;28;20860;-62
2023/06/20 01:21:17;;;;;;;11.00;6.57;;;;;;;18.84;100.00;101403.38;2058547;28;20569;-62
2023/06/20 01:22:56;;;;;;;12.20;7.13;;;;;;;18.82;100.00;101402.28;2058014;28;20504;-62
2023/06/20 01:24:09;;;;;;;9.80;6.30;;;;;;;18.80;100.00;101404.78;2041119;29;20509;-62
2023/06/20 01:25:19;;;;;;;12.97;6.67;;;;;;;18.80;100.00;101407.59;2045103;28;20419;-63
2023/06/20 01:26:30;;;;;;;10.63;7.13;;;;;;;18.03;100.00;101286.31;2057994;28;20406;-62
2023/06/20 01:27:43;;;;;;;15.40;7.57;;;;;;;18.78;100.00;101405.25;2063305;28;20423;-62
2023/06/20 01:28:51;;;;;;;26.17;8.60;;;;;;;18.80;100.00;101399.19;2070728;28;20420;-62
2023/06/20 01:30:16;;;;;;;28.97;8.63;;;;;;;18.80;100.00;101397.16;2066078;28;20432;-62
2023/06/20 01:31:27;;;;;;;36.07;8.90;;;;;;;18.82;100.00;101391.84;2065992;28;20929;-62
2023/06/20 01:32:28;;;;;;;37.90;8.63;;;;;;;18.81;100.00;101378.28;2065801;28;20431;-62
2023/06/20 01:33:35;;;;;;;21.90;7.63;;;;;;;18.82;100.00;101389.03;2065866;28;20417;-62
2023/06/20 01:34:44;;;;;;;24.43;8.03;;;;;;;18.83;100.00;101384.22;2065952;28;20402;-62
2023/06/20 01:35:47;;;;;;;19.83;7.40;;;;;;;18.15;100.00;101281.81;2066050;28;20529;-62
2023/06/20 01:36:54;;;;;;;11.03;7.23;;;;;;;18.36;100.00;101314.56;2065816;28;20434;-62
2023/06/20 01:37:59;;;;;;;12.37;7.63;;;;;;;18.81;100.00;101386.69;2069074;28;21063;-62
2023/06/20 01:39:07;;;;;;;11.70;7.17;;;;;;;18.82;100.00;101385.44;2073878;28;20782;-62
2023/06/20 01:40:10;;;;;;;12.63;7.50;;;;;;;18.76;100.00;101404.16;2071722;28;20415;-62
2023/06/20 01:41:13;;;;;;;10.87;6.80;;;;;;;18.66;100.00;101380.16;2065820;28;20936;-62
2023/06/20 01:42:16;;;;;;;11.70;7.00;;;;;;;18.34;100.00;101333.09;2065729;28;20428;-62
2023/06/20 01:43:20;;;;;;;14.80;7.37;;;;;;;18.74;100.00;101387.03;2065885;28;20523;-62
2023/06/20 01:44:22;;;;;;;10.33;7.17;;;;;;;18.27;100.00;101315.31;2065932;28;20799;-62
2023/06/20 01:45:23;;;;;;;12.83;6.87;;;;;;;18.67;100.00;101370.50;2073317;28;20427;-63
2023/06/20 01:46:25;;;;;;;12.00;7.20;;;;;;;18.73;100.00;101371.44;2073959;28;20984;-62
2023/06/20 01:47:27;;;;;;;11.13;6.97;;;;;;;18.77;100.00;101377.69;2068412;28;20925;-62
2023/06/20 01:48:32;;;;;;;13.80;7.77;;;;;;;18.80;100.00;101399.19;2065815;28;20418;-62
2023/06/20 01:49:33;;;;;;;9.23;6.40;;;;;;;18.80;100.00;101382.34;2065778;28;20433;-62
2023/06/20 01:50:37;;;;;;;12.53;6.77;;;;;;;18.78;100.00;101380.00;2065780;28;20431;-62
2023/06/20 01:51:38;;;;;;;14.57;6.80;;;;;;;18.70;100.00;101369.56;2065744;28;20451;-62
2023/06/20 01:52:40;;;;;;;9.93;7.13;;;;;;;18.81;100.00;101379.06;2066989;28;20432;-62
2023/06/20 01:53:43;;;;;;;10.80;6.60;;;;;;;18.84;100.00;101385.75;2073807;28;20427;-62
2023/06/20 01:54:46;;;;;;;10.93;6.83;;;;;;;18.85;100.00;101384.50;2073852;28;20417;-63
2023/06/20 01:55:48;;;;;;;10.43;7.10;;;;;;;18.85;100.00;101388.09;2065335;28;20946;-62
2023/06/20 01:56:50;;;;;;;8.93;6.77;;;;;;;18.84;100.00;101383.72;2065799;28;20447;-62
2023/06/20 01:57:54;;;;;;;8.97;6.00;;;;;;;18.78;100.00;101388.41;2065745;28;20889;-62
2023/06/20 01:58:56;;;;;;;9.20;6.13;;;;;;;18.48;100.00;101341.66;2060769;28;20960;-62
2023/06/20 01:59:58;;;;;;;7.43;6.20;;;;;;;18.81;100.00;101378.28;2061063;28;20447;-62
2023/06/20 02:01:00;;;;;;;6.60;5.90;;;;;;;18.81;100.00;101376.25;2065477;28;20437;-62
2023/06/20 02:02:02;;;;;;;8.53;6.30;;;;;;;18.81;100.00;101369.84;2065616;28;20425;-63
2023/06/20 02:03:03;;;;;;;8.37;5.70;;;;;;;18.82;100.00;101379.81;2065507;28;20425;-62
2023/06/20 02:04:05;;;;;;;8.53;6.67;;;;;;;18.65;100.00;101356.94;2065752;28;20796;-62
2023/06/20 02:05:07;;;;;;;7.93;6.07;;;;;;;18.65;100.00;101351.31;2065413;28;20919;-62
2023/06/20 02:06:10;;;;;;;8.93;6.30;;;;;;;18.72;100.00;101372.69;2065446;28;20468;-63
2023/06/20 02:07:12;;;;;;;8.10;7.10;;;;;;;18.76;100.00;101384.50;2064841;28;20530;-62
2023/06/20 02:08:13;;;;;;;12.93;7.33;;;;;;;18.66;100.00;101383.75;2065621;28;21053;-62
2023/06/20 02:09:16;;;;;;;8.73;7.20;;;;;;;18.64;100.00;101391.09;2065495;28;20433;-62
2023/06/20 02:10:17;;;;;;;10.70;7.53;;;;;;;18.60;100.00;101385.63;2065596;28;20421;-63
2023/06/20 02:11:19;;;;;;;14.17;8.33;;;;;;;18.64;100.00;101389.06;2065655;28;20424;-62
2023/06/20 02:12:20;;;;;;;22.60;7.93;;;;;;;18.70;100.00;101392.00;2065684;28;20178;-62
2023/06/20 02:13:23;;;;;;;17.23;8.60;;;;;;;18.75;100.00;101388.56;2065481;28;20954;-62
2023/06/20 02:14:25;;;;;;;20.70;8.70;;;;;;;18.76;100.00;101387.31;2065582;28;20885;-63
2023/06/20 02:15:26;;;;;;;26.77;8.50;;;;;;;18.59;100.00;101367.25;2065419;28;20851;-62
2023/06/20 02:16:28;;;;;;;24.40;8.37;;;;;;;18.81;100.00;101389.50;2065493;28;20452;-62
2023/06/20 02:17:30;;;;;;;18.77;7.83;;;;;;;18.11;100.00;101274.81;2065236;28;20448;-63
2023/06/20 02:18:32;;;;;;;20.83;8.40;;;;;;;18.87;100.00;101390.41;2065691;28;20451;-62
2023/06/20 02:19:32;;;;;;;14.47;7.87;;;;;;;18.90;100.00;101393.09;2065204;28;20417;-62
2023/06/20 02:20:33;;;;;;;23.00;8.00;;;;;;;18.92;100.00;101389.78;2065496;28;20422;-62
2023/06/20 02:21:38;;;;;;;20.47;8.53;;;;;;;18.95;100.00;101391.66;2065630;28;20174;-62
2023/06/20 02:22:42;;;;;;;19.77;8.10;;;;;;;18.64;100.00;101341.34;2065492;28;20425;-62
2023/06/20 02:23:46;;;;;;;24.67;9.03;;;;;;;19.01;100.00;101389.78;2064986;28;20888;-62
2023/06/20 02:24:49;;;;;;;22.87;9.10;;;;;;;19.01;100.00;101390.56;2065363;28;21041;-62
2023/06/20 02:25:50;;;;;;;22.53;8.67;;;;;;;19.01;100.00;101389.78;2065394;28;20441;-62
2023/06/20 02:26:52;;;;;;;12.53;7.57;;;;;;;19.05;100.00;101391.19;2065497;28;20426;-62
2023/06/20 02:27:55;;;;;;;11.63;7.57;;;;;;;19.07;100.00;101390.69;2067546;28;20413;-62
2023/06/20 02:28:58;;;;;;;11.70;6.83;;;;;;;19.06;100.00;101394.75;2073555;28;20468;-62
2023/06/20 02:30:03;;;;;;;11.03;7.67;;;;;;;19.08;100.00;101389.47;2073570;28;20421;-62
2023/06/20 02:31:06;;;;;;;10.40;6.80;;;;;;;19.10;100.00;101398.19;2065501;28;20418;-62
2023/06/20 02:32:09;;;;;;;13.27;8.10;;;;;;;19.10;100.00;101398.97;2065153;28;20544;-63
2023/06/20 02:33:11;;;;;;;13.27;7.77;;;;;;;19.13;100.00;101400.06;2065206;28;20429;-62
2023/06/20 02:34:14;;;;;;;20.47;7.70;;;;;;;19.15;100.00;101394.75;2070534;28;20818;-62
2023/06/20 02:35:17;;;;;;;9.20;6.57;;;;;;;19.00;100.00;101377.78;2066105;28;20522;-62
2023/06/20 02:36:20;;;;;;;10.60;6.73;;;;;;;19.20;100.00;101399.72;2057468;28;20423;-62
2023/06/20 02:37:24;;;;;;;11.43;6.67;;;;;;;19.23;100.00;101395.97;2059170;28;20426;-62
2023/06/20 02:38:25;;;;;;;10.97;6.77;;;;;;;18.62;100.00;101298.91;2065879;28;20421;-62
2023/06/20 02:39:25;;;;;;;10.30;6.30;;;;;;;19.21;100.00;101401.28;2073244;28;20412;-62
2023/06/20 02:40:26;;;;;;;10.33;6.40;;;;;;;19.15;100.00;101381.50;2065594;28;20193;-62
2023/06/20 02:41:26;;;;;;;13.53;6.83;;;;;;;19.22;100.00;101394.44;2065400;28;20194;-63
2023/06/20 02:42:26;;;;;;;12.13;7.40;;;;;;;19.17;100.00;101386.59;2065281;28;20186;-62
2023/06/20 02:43:28;;;;;;;9.93;7.30;;;;;;;19.25;100.00;101394.25;2065266;28;20186;-62
2023/06/20 02:44:29;;;;;;;9.40;6.77;;;;;;;19.29;100.00;101396.91;2065444;28;20225;-62
2023/06/20 02:45:29;;;;;;;11.73;6.33;;;;;;;19.33;100.00;101389.88;2065407;28;20405;-62
2023/06/20 02:46:54;;;;;;;10.77;6.20;;;;;;;19.39;100.00;101395.63;2065410;28;20189;-62
2023/06/20 02:48:27;;;;;;;9.30;6.37;;;;;;;19.39;100.00;101396.41;2057160;28;20608;-62
2023/06/20 02:49:52;;;;;;;12.00;6.10;;;;;;;19.41;100.00;101399.53;2057064;28;20986;-62
2023/06/20 02:51:07;;;;;;;12.43;6.67;;;;;;;19.32;100.00;101399.56;2064377;28;20437;-62
2023/06/20 02:52:34;;;;;;;11.70;6.87;;;;;;;19.35;100.00;101407.03;2065459;28;20413;-62
2023/06/20 02:53:59;;;;;;;12.83;7.03;;;;;;;19.42;100.00;101408.72;2057294;28;20474;-62
2023/06/20 02:55:36;;;;;;;10.13;7.63;;;;;;;19.41;100.00;101407.97;2058486;28;20916;-62
2023/06/20 02:56:38;;;;;;;12.30;6.80;;;;;;;19.40;100.00;101409.19;2064731;28;20432;-62
2023/06/20 02:57:46;;;;;;;10.80;7.50;;;;;;;19.40;100.00;101414.81;2064678;28;20441;-62
2023/06/20 02:58:52;;;;;;;11.03;7.13;;;;;;;19.43;100.00;101411.06;2065224;28;20458;-62
2023/06/20 03:00:10;;;;;;;15.83;7.10;;;;;;;19.46;100.00;101406.53;2065118;28;20807;-62
2023/06/20 03:01:17;;;;;;;12.27;6.93;;;;;;;19.49;100.00;101414.03;2065112;28;20453;-63
2023/06/20 03:02:19;;;;;;;14.80;7.63;;;;;;;19.54;100.00;101414.16;2065393;28;20496;-62
2023/06/20 03:03:27;;;;;;;24.33;8.93;;;;;;;19.57;100.00;101416.03;2065097;28;20436;-62
2023/06/20 03:04:34;;;;;;;33.47;8.70;;;;;;;18.64;100.00;101267.56;2065156;28;20412;-61
2023/06/20 03:05:38;;;;;;;21.27;8.60;;;;;;;19.64;100.00;101420.50;2065339;28;20402;-62
2023/06/20 03:06:42;;;;;;;23.83;8.30;;;;;;;19.50;100.00;101407.91;2064959;28;20946;-63
2023/06/20 03:07:43;;;;;;;16.77;8.80;;;;;;;19.70;100.00;101413.00;2065096;28;20425;-63
2023/06/20 03:08:49;;;;;;;20.57;8.07;;;;;;;19.18;100.00;101329.19;2065262;28;20428;-62
2023/06/20 03:09:51;;;;;;;20.03;8.67;;;;;;;19.75;100.00;101427.16;2057264;28;20399;-63
2023/06/20 03:10:52;;;;;;;20.23;8.10;;;;;;;19.42;100.00;101367.34;2063818;28;20449;-62
2023/06/20 03:11:52;;;;;;;20.43;8.23;;;;;;;19.80;100.00;101417.31;2065086;28;20529;-62
2023/06/20 03:12:53;;;;;;;16.53;8.93;;;;;;;19.82;100.00;101415.59;2064505;28;20209;-62
2023/06/20 03:13:53;;;;;;;17.73;7.77;;;;;;;19.31;100.00;101343.81;2065250;28;20206;-61
2023/06/20 03:14:53;;;;;;;14.00;7.20;;;;;;;19.78;100.00;101439.50;2065035;28;20198;-63
2023/06/20 03:15:57;;;;;;;16.30;7.73;;;;;;;19.75;100.00;101427.16;2066934;28;20209;-62
2023/06/20 03:16:57;;;;;;;15.73;7.77;;;;;;;19.77;100.00;101427.50;2072284;28;20189;-62
2023/06/20 03:18:01;;;;;;;16.47;8.07;;;;;;;19.40;100.00;101374.69;2065211;28;20421;-62
2023/06/20 03:19:02;;;;;;;13.23;8.10;;;;;;;19.81;100.00;101433.69;2057135;28;20640;-62
2023/06/20 03:20:06;;;;;;;17.37;8.33;;;;;;;19.84;100.00;101441.19;2056947;28;20866;-62
2023/06/20 03:21:06;;;;;;;8.57;7.17;;;;;;;19.90;100.00;101438.53;2062567;28;20449;-62
2023/06/20 03:22:07;;;;;;;11.70;7.43;;;;;;;19.93;100.00;101446.78;2065058;28;20962;-62
2023/06/20 03:23:07;;;;;;;12.53;7.10;;;;;;;19.93;100.00;101446.00;2065067;28;20694;-62
2023/06/20 03:24:08;;;;;;;8.60;7.30;;;;;;;19.96;100.00;101442.22;2065120;28;20166;-62
2023/06/20 03:25:08;;;;;;;12.17;6.90;;;;;;;19.98;100.00;101443.31;2065229;28;20211;-62
2023/06/20 03:26:09;;;;;;;9.80;7.47;;;;;;;19.90;100.00;101433.66;2065049;28;20213;-63
2023/06/20 03:27:09;;;;;;;9.73;6.70;;;;;;;20.05;100.00;101445.00;2071907;28;20196;-62
2023/06/20 03:28:09;;;;;;;10.73;6.93;;;;;;;19.77;100.00;101392.94;2067737;28;20194;-62
2023/06/20 03:29:10;;;;;;;12.80;7.10;;;;;;;20.11;100.00;101440.31;2065017;28;20179;-62
2023/06/20 03:30:11;;;;;;;10.07;6.87;;;;;;;20.13;100.00;101437.78;2068015;28;20225;-63
2023/06/20 03:31:11;;;;;;;10.57;7.03;;;;;;;20.17;100.00;101439.16;2070999;28;20774;-63
2023/06/20 03:32:12;;;;;;;8.17;7.03;;;;;;;20.20;100.00;101441.00;2065178;28;20846;-62
2023/06/20 03:33:12;;;;;;;11.50;7.20;;;;;;;20.22;100.00;101434.91;2065177;28;20257;-62
2023/06/20 03:34:12;;;;;;;9.77;6.67;;;;;;;20.23;100.00;101430.84;2064750;28;20202;-62
2023/06/20 03:35:13;;;;;;;9.27;7.10;;;;;;;20.16;100.00;101419.94;2065019;28;20200;-62
2023/06/20 03:36:13;;;;;;;22.40;8.67;;;;;;;20.32;100.00;101428.72;2064929;28;20174;-62
2023/06/20 03:37:14;;;;;;;42.20;9.00;;;;;;;20.36;100.00;101425.75;2061154;28;20179;-62
2023/06/20 03:38:15;;;;;;;31.77;8.60;;;;;;;20.40;100.00;101426.31;2058446;28;20213;-62
2023/06/20 03:39:15;;;;;;;30.33;7.87;;;;;;;20.35;100.00;101421.34;2065052;28;20718;-62
2023/06/20 03:40:16;;;;;;;20.27;7.90;;;;;;;20.41;100.00;101423.03;2065123;28;20856;-62
2023/06/20 03:41:16;;;;;;;23.87;8.07;;;;;;;20.43;100.00;101420.53;2064812;28;20214;-62
2023/06/20 03:42:17;;;;;;;15.83;6.83;;;;;;;20.46;100.00;101413.16;2065140;28;20198;-62
2023/06/20 03:43:18;;;;;;;20.43;7.63;;;;;;;19.89;100.00;101325.22;2064962;28;20691;-62
2023/06/20 03:44:18;;;;;;;12.00;7.23;;;;;;;20.48;100.00;101408.59;2065037;28;20538;-63
2023/06/20 03:45:18;;;;;;;13.30;7.03;;;;;;;20.49;100.00;101412.97;2064434;28;20174;-62
2023/06/20 03:46:19;;;;;;;11.27;7.13;;;;;;;19.79;100.00;101303.25;2064450;28;20249;-63
2023/06/20 03:47:19;;;;;;;10.80;6.60;;;;;;;20.43;100.00;101405.66;2065100;28;20233;-62
2023/06/20 03:48:21;;;;;;;11.63;6.87;;;;;;;20.18;100.00;101372.38;2064959;28;20638;-63
2023/06/20 03:49:21;;;;;;;36.63;10.63;;;;;;;20.45;100.00;101426.44;2064851;28;20269;-62
2023/06/20 03:50:22;;;;;;;29.57;9.67;;;;;;;20.38;100.00;101417.59;2064989;28;20417;-63
2023/06/20 03:51:22;;;;;;;18.57;7.60;;;;;;;20.41;100.00;101419.47;2064899;28;20209;-62
2023/06/20 03:52:23;;;;;;;15.17;7.47;;;;;;;20.46;100.00;101422.38;2066437;28;20564;-62
2023/06/20 03:53:23;;;;;;;6.97;6.00;;;;;;;20.21;100.00;101386.28;2066397;28;20198;-62
2023/06/20 03:54:23;;;;;;;14.60;6.53;;;;;;;20.50;100.00;101431.41;2066657;28;20213;-63
2023/06/20 03:55:24;;;;;;;16.30;7.50;;;;;;;20.51;100.00;101426.53;2058852;28;20270;-62
2023/06/20 03:56:24;;;;;;;18.70;7.67;;;;;;;20.53;100.00;101433.25;2064954;28;20193;-62
2023/06/20 03:57:24;;;;;;;21.97;8.20;;;;;;;20.48;100.00;101425.50;2066289;28;20269;-62
2023/06/20 03:58:25;;;;;;;22.93;8.27;;;;;;;20.53;100.00;101432.50;2066638;28;20236;-64
2023/06/20 03:59:25;;;;;;;21.77;8.50;;;;;;;20.53;100.00;101429.69;2066483;28;20177;-62
2023/06/20 04:00:26;;;;;;;27.83;9.17;;;;;;;20.51;100.00;101430.16;2065833;28;20188;-62
2023/06/20 04:01:26;;;;;;;25.60;7.97;;;;;;;20.54;100.00;101434.84;2066076;28;20648;-63
2023/06/20 04:02:27;;;;;;;18.23;7.47;;;;;;;20.56;100.00;101431.50;2066656;28;20255;-63
2023/06/20 04:03:28;;;;;;;18.43;8.43;;;;;;;20.57;100.00;101431.03;2073377;28;20231;-62
2023/06/20 04:04:29;;;;;;;26.27;9.57;;;;;;;20.55;100.00;101433.56;2069402;28;20190;-61
2023/06/20 04:05:30;;;;;;;34.97;8.70;;;;;;;20.55;100.00;101430.75;2061994;28;20430;-62
2023/06/20 04:06:30;;;;;;;30.77;8.97;;;;;;;19.84;100.00;101331.50;2058616;28;20520;-63
2023/06/20 04:07:31;;;;;;;17.17;8.13;;;;;;;20.49;100.00;101432.69;2059399;28;20267;-62
2023/06/20 04:08:32;;;;;;;20.70;7.70;;;;;;;20.50;100.00;101433.44;2066502;28;20209;-61
2023/06/20 04:09:32;;;;;;;15.23;7.87;;;;;;;20.51;100.00;101441.41;2066585;28;20262;-62
2023/06/20 04:10:33;;;;;;;19.83;8.00;;;;;;;20.57;100.00;101430.28;2066247;28;20678;-62
2023/06/20 04:11:33;;;;;;;19.20;7.77;;;;;;;20.64;100.00;101432.72;2066119;28;20626;-62
2023/06/20 04:12:33;;;;;;;12.63;7.03;;;;;;;20.64;100.00;101432.72;2066533;28;20200;-63
2023/06/20 04:13:34;;;;;;;12.60;7.17;;;;;;;20.63;100.00;101429.09;2066345;28;20190;-62
2023/06/20 04:14:34;;;;;;;15.10;7.63;;;;;;;20.71;100.00;101435.13;2068731;28;20179;-62
2023/06/20 04:15:34;;;;;;;18.00;7.20;;;;;;;20.72;100.00;101436.72;2073576;28;20185;-63
2023/06/20 04:16:35;;;;;;;12.53;7.40;;;;;;;20.75;100.00;101441.38;2066697;28;20179;-62
2023/06/20 04:17:42;;;;;;;14.23;7.63;;;;;;;20.76;100.00;101437.28;2074607;28;20670;-63
2023/06/20 04:18:42;;;;;;;18.67;7.97;;;;;;;19.82;100.00;101283.41;2066871;28;20457;-62
2023/06/20 04:19:43;;;;;;;25.17;7.60;;;;;;;20.80;100.00;101437.88;2068330;28;20512;-62
2023/06/20 04:20:43;;;;;;;21.23;8.20;;;;;;;20.82;100.00;101441.03;2064626;28;20219;-62
2023/06/20 04:21:44;;;;;;;15.10;7.53;;;;;;;20.85;100.00;101437.22;2066329;28;20190;-62
2023/06/20 04:22:45;;;;;;;19.73;7.83;;;;;;;20.89;100.00;101435.00;2065771;28;20646;-62
2023/06/20 04:23:45;;;;;;;14.60;7.57;;;;;;;20.15;100.00;101325.50;2066999;28;20670;-62
2023/06/20 04:24:49;;;;;;;17.17;7.47;;;;;;;20.92;100.00;101440.47;2065892;28;20186;-62
2023/06/20 04:25:49;;;;;;;17.57;7.43;;;;;;;20.97;100.00;101439.78;2066396;28;20174;-62
2023/06/20 04:26:50;;;;;;;12.03;7.27;;;;;;;20.98;100.00;101434.94;2065883;28;20437;-62
2023/06/20 04:27:53;;;;;;;11.97;7.03;;;;;;;21.03;100.00;101437.09;2063768;28;20186;-62
2023/06/20 04:28:54;;;;;;;9.50;7.13;;;;;;;20.95;100.00;101424.63;2065207;28;20205;-63
2023/06/20 04:29:57;;;;;;;9.90;6.60;;;;;;;21.07;100.00;101441.25;2065948;28;20437;-62
2023/06/20 04:30:59;;;;;;;15.77;7.80;;;;;;;21.12;100.00;101437.75;2066092;28;20210;-63
2023/06/20 04:32:00;;;;;;;12.97;7.53;;;;;;;20.47;100.00;101338.69;2066112;28;20437;-62
2023/06/20 04:33:01;;;;;;;13.40;7.90;;;;;;;21.19;100.00;101439.41;2065977;28;20413;-63
2023/06/20 04:34:01;;;;;;;22.77;9.43;;;;;;;21.18;100.00;101441.44;2064681;28;20206;-62
2023/06/20 04:35:02;;;;;;;26.73;9.40;;;;;;;20.87;100.00;101398.84;2065725;28;20186;-62
2023/06/20 04:36:03;;;;;;;26.20;9.00;;;;;;;21.28;100.00;101447.78;2065878;28;20187;-62
2023/06/20 04:37:03;;;;;;;21.40;9.30;;;;;;;21.30;100.00;101442.44;2065366;28;20660;-62
2023/06/20 04:38:04;;;;;;;24.40;10.67;;;;;;;21.33;100.00;101449.94;2065678;28;20203;-63
2023/06/20 04:39:06;;;;;;;21.30;8.80;;;;;;;21.37;100.00;101454.09;2062688;28;20218;-62
2023/06/20 04:40:08;;;;;;;12.40;7.80;;;;;;;21.35;100.00;101450.97;2065589;28;20262;-62
2023/06/20 04:41:09;;;;;;;11.40;7.27;;;;;;;21.10;100.00;101412.13;2065539;28;20487;-63
2023/06/20 04:42:09;;;;;;;9.90;6.83;;;;;;;21.41;100.00;101459.53;2063597;28;20457;-63
2023/06/20 04:43:10;;;;;;;13.77;6.70;;;;;;;21.26;100.00;101439.81;2064122;28;20277;-62
2023/06/20 04:44:10;;;;;;;11.80;7.13;;;;;;;21.37;100.00;101464.59;2064842;28;20262;-63
2023/06/20 04:45:11;;;;;;;9.07;7.10;;;;;;;21.26;100.00;101448.28;2065653;28;20205;-63
2023/06/20 04:46:12;;;;;;;29.00;13.20;;;;;;;21.26;100.00;101444.66;2065375;28;20702;-62
2023/06/20 04:47:13;;;;;;;17.67;8.70;;;;;;;21.42;100.00;101473.16;2065706;28;20223;-62
2023/06/20 04:48:15;;;;;;;27.10;10.00;;;;;;;21.39;100.00;101464.91;2065408;28;20484;-63